createdAt,value
2022-12-25T00:02:15.419Z,1.94
2022-12-25T00:04:42.016Z,1.93
2022-12-25T00:07:08.590Z,1.98
2022-12-25T00:09:35.187Z,2.04
2022-12-25T00:12:01.793Z,2.05
2022-12-25T00:14:28.368Z,2.06
2022-12-25T00:16:55.015Z,2.07
2022-12-25T00:19:21.661Z,2.06
2022-12-25T00:21:48.219Z,2.01
2022-12-25T00:24:14.739Z,1.99
2022-12-25T00:26:41.355Z,2.00
2022-12-25T00:29:12.346Z,1.99
2022-12-25T00:31:38.946Z,2.00
2022-12-25T00:34:05.580Z,1.97
2022-12-25T00:36:37.759Z,1.96
2022-12-25T00:39:07.952Z,1.97
2022-12-25T00:41:53.123Z,2.01
2022-12-25T00:44:19.705Z,2.05
2022-12-25T00:46:46.366Z,2.08
2022-12-25T00:49:13.509Z,2.09
2022-12-25T00:51:40.467Z,2.14
2022-12-25T00:54:07.223Z,2.15
2022-12-25T00:56:34.184Z,2.21
2022-12-25T00:59:00.764Z,2.25
2022-12-25T01:01:27.430Z,2.25
2022-12-25T01:03:55.316Z,2.18
2022-12-25T01:06:21.924Z,2.17
2022-12-25T01:09:06.891Z,2.18
2022-12-25T01:11:33.579Z,2.20
2022-12-25T01:14:00.261Z,2.25
2022-12-25T01:16:27.348Z,2.28
2022-12-25T01:18:54.121Z,2.30
2022-12-25T01:21:21.367Z,2.34
2022-12-25T01:23:50.147Z,2.37
2022-12-25T01:26:18.015Z,2.37
2022-12-25T01:28:44.645Z,2.47
2022-12-25T01:31:15.325Z,2.59
2022-12-25T01:33:43.386Z,2.73
2022-12-25T01:36:17.443Z,2.81
2022-12-25T01:38:44.994Z,2.83
2022-12-25T01:41:12.653Z,2.84
2022-12-25T01:44:19.741Z,2.71
2022-12-25T01:46:46.339Z,2.67
2022-12-25T01:49:18.028Z,2.59
2022-12-25T01:51:47.150Z,2.54
2022-12-25T01:54:19.877Z,2.53
2022-12-25T01:56:48.858Z,2.54
2022-12-25T01:59:19.767Z,2.53
2022-12-25T02:01:46.987Z,2.53
2022-12-25T02:04:21.988Z,2.53
2022-12-25T02:06:51.602Z,2.61
2022-12-25T02:09:18.755Z,2.62
2022-12-25T02:11:59.013Z,2.64
2022-12-25T02:14:30.398Z,2.60
2022-12-25T02:17:07.328Z,2.59
2022-12-25T02:19:52.627Z,2.60
2022-12-25T02:22:50.288Z,2.65
2022-12-25T02:25:38.762Z,2.72
2022-12-25T02:28:13.046Z,2.68
2022-12-25T02:30:44.594Z,2.69
2022-12-25T02:33:34.781Z,2.70
2022-12-25T02:36:06.243Z,2.75
2022-12-25T02:38:59.867Z,2.77
2022-12-25T02:41:30.527Z,2.80
2022-12-25T02:44:18.470Z,2.82
2022-12-25T02:47:04.330Z,2.88
2022-12-25T02:49:52.547Z,2.92
2022-12-25T02:52:40.817Z,2.97
2022-12-25T02:55:32.921Z,2.96
2022-12-25T02:58:27.281Z,2.94
2022-12-25T03:01:21.535Z,2.88
2022-12-25T03:04:08.884Z,2.85
2022-12-25T03:06:43.225Z,2.81
2022-12-25T03:09:32.995Z,2.81
2022-12-25T03:12:05.356Z,2.86
2022-12-25T03:14:50.717Z,2.92
2022-12-25T03:17:17.587Z,3.00
2022-12-25T03:20:02.980Z,3.09
2022-12-25T03:22:50.781Z,3.15
2022-12-25T03:25:37.409Z,3.22
2022-12-25T03:28:05.948Z,3.18
2022-12-25T03:31:13.799Z,3.15
2022-12-25T03:34:08.011Z,3.13
2022-12-25T03:37:17.162Z,3.22
2022-12-25T03:40:26.710Z,3.26
2022-12-25T03:43:19.000Z,3.25
2022-12-25T03:46:10.548Z,3.28
2022-12-25T03:49:01.487Z,3.26
2022-12-25T03:51:51.936Z,3.33
2022-12-25T03:54:41.589Z,3.36
2022-12-25T03:57:28.427Z,3.40
2022-12-25T04:00:13.797Z,3.46
2022-12-25T04:02:58.861Z,3.63
2022-12-25T04:05:44.037Z,3.76
2022-12-25T04:08:29.099Z,3.86
2022-12-25T04:11:14.007Z,3.92
2022-12-25T04:13:58.907Z,3.97
2022-12-25T04:16:43.861Z,4.07
2022-12-25T04:19:29.168Z,4.17
2022-12-25T04:22:14.203Z,4.33
2022-12-25T04:24:59.339Z,4.38
2022-12-25T04:27:44.235Z,4.40
2022-12-25T04:30:29.363Z,4.42
2022-12-25T04:33:17.821Z,4.51
2022-12-25T04:36:08.704Z,4.55
2022-12-25T04:38:36.653Z,4.60
2022-12-25T04:41:03.749Z,4.66
2022-12-25T04:43:30.329Z,4.66
2022-12-25T04:45:58.910Z,4.63
2022-12-25T04:48:26.687Z,4.65
2022-12-25T04:50:53.750Z,4.77
2022-12-25T04:53:20.905Z,4.83
2022-12-25T04:55:47.509Z,4.85
2022-12-25T04:58:14.589Z,4.87
2022-12-25T05:00:41.636Z,4.89
2022-12-25T05:03:08.293Z,4.91
2022-12-25T05:05:38.352Z,4.94
2022-12-25T05:08:05.824Z,4.95
2022-12-25T05:10:32.424Z,4.94
2022-12-25T05:12:59.129Z,4.95
2022-12-25T05:15:25.727Z,4.95
2022-12-25T05:17:52.300Z,4.99
2022-12-25T05:20:18.901Z,4.99
2022-12-25T05:22:45.540Z,4.98
2022-12-25T05:25:12.118Z,4.97
2022-12-25T05:27:38.680Z,4.95
2022-12-25T05:30:05.771Z,4.91
2022-12-25T05:32:32.367Z,4.91
2022-12-25T05:35:00.411Z,4.91
2022-12-25T05:37:26.990Z,4.91
2022-12-25T05:39:53.570Z,4.89
2022-12-25T05:42:20.135Z,4.88
2022-12-25T05:44:46.835Z,4.86
2022-12-25T05:47:13.483Z,4.89
2022-12-25T05:49:40.067Z,4.92
2022-12-25T05:52:06.625Z,4.90
2022-12-25T05:54:35.254Z,4.85
2022-12-25T05:57:02.088Z,4.83
2022-12-25T05:59:33.299Z,4.76
2022-12-25T06:02:00.599Z,4.68
2022-12-25T06:04:27.498Z,4.63
2022-12-25T06:06:54.061Z,4.50
2022-12-25T06:09:20.637Z,4.35
2022-12-25T06:11:47.201Z,4.26
2022-12-25T06:14:15.615Z,4.20
2022-12-25T06:16:42.598Z,4.06
2022-12-25T06:19:09.223Z,3.98
2022-12-25T06:21:35.817Z,3.92
2022-12-25T06:24:02.684Z,3.77
2022-12-25T06:26:29.353Z,3.65
2022-12-25T06:28:55.897Z,3.53
2022-12-25T06:31:23.655Z,3.41
2022-12-25T06:33:50.579Z,3.38
2022-12-25T06:36:20.259Z,3.36
2022-12-25T06:38:46.948Z,3.36
2022-12-25T06:41:18.870Z,3.33
2022-12-25T06:43:51.187Z,3.22
2022-12-25T06:46:18.806Z,3.18
2022-12-25T06:48:49.337Z,3.19
2022-12-25T06:51:17.845Z,3.10
2022-12-25T06:53:44.493Z,3.07
2022-12-25T06:56:16.425Z,2.99
2022-12-25T06:58:57.038Z,2.93
2022-12-25T07:01:27.250Z,2.91
2022-12-25T07:03:58.126Z,2.90
2022-12-25T07:06:26.380Z,2.92
2022-12-25T07:08:53.036Z,2.94
2022-12-25T07:11:20.461Z,2.93
2022-12-25T07:13:47.471Z,2.94
2022-12-25T07:16:15.464Z,2.97
2022-12-25T07:18:42.334Z,2.99
2022-12-25T07:21:14.336Z,3.03
2022-12-25T07:23:42.171Z,3.03
2022-12-25T07:26:10.482Z,2.99
2022-12-25T07:28:37.315Z,3.01
2022-12-25T07:31:06.379Z,3.00
2022-12-25T07:33:33.979Z,2.99
2022-12-25T07:36:00.808Z,3.01
2022-12-25T07:38:27.764Z,3.04
2022-12-25T07:40:54.541Z,3.07
2022-12-25T07:43:21.126Z,3.14
2022-12-25T07:45:47.778Z,3.21
2022-12-25T07:48:16.785Z,3.27
2022-12-25T07:50:43.866Z,3.32
2022-12-25T07:53:10.466Z,3.36
2022-12-25T07:55:37.093Z,3.41
2022-12-25T07:58:03.692Z,3.46
2022-12-25T08:00:33.988Z,3.57
2022-12-25T08:03:00.840Z,3.68
2022-12-25T08:05:27.753Z,3.82
2022-12-25T08:07:57.665Z,3.99
2022-12-25T08:10:24.832Z,4.18
2022-12-25T08:12:52.095Z,4.34
2022-12-25T08:15:18.690Z,4.52
2022-12-25T08:17:45.256Z,4.66
2022-12-25T08:20:12.229Z,4.80
2022-12-25T08:22:38.808Z,4.93
2022-12-25T08:25:05.538Z,5.07
2022-12-25T08:27:32.200Z,5.18
2022-12-25T08:29:58.744Z,5.24
2022-12-25T08:32:25.351Z,5.29
2022-12-25T08:34:51.923Z,5.34
2022-12-25T08:37:18.516Z,5.41
2022-12-25T08:39:45.170Z,5.55
2022-12-25T08:42:11.693Z,5.76
2022-12-25T08:44:38.422Z,6.11
2022-12-25T08:47:05.064Z,6.57
2022-12-25T08:49:31.941Z,7.11
2022-12-25T08:51:58.772Z,7.62
2022-12-25T08:54:25.343Z,7.97
2022-12-25T08:56:53.332Z,8.28
2022-12-25T08:59:21.730Z,8.55
2022-12-25T09:01:48.460Z,8.89
2022-12-25T09:04:15.204Z,9.30
2022-12-25T09:06:41.759Z,9.62
2022-12-25T09:09:08.320Z,9.83
2022-12-25T09:11:34.859Z,9.99
2022-12-25T09:14:01.458Z,10.27
2022-12-25T09:16:28.449Z,10.45
2022-12-25T09:18:56.699Z,10.47
2022-12-25T09:21:23.224Z,10.53
2022-12-25T09:23:50.074Z,10.48
2022-12-25T09:26:18.330Z,10.60
2022-12-25T09:28:51.234Z,10.79
2022-12-25T09:31:20.073Z,10.83
2022-12-25T09:33:47.039Z,10.94
2022-12-25T09:36:13.818Z,11.50
2022-12-25T09:38:40.495Z,12.16
2022-12-25T09:41:38.261Z,12.94
2022-12-25T09:44:16.781Z,13.68
2022-12-25T09:46:55.829Z,14.35
2022-12-25T09:49:48.521Z,15.14
2022-12-25T09:52:22.066Z,15.55
2022-12-25T09:54:54.100Z,16.03
2022-12-25T09:57:20.776Z,16.53
2022-12-25T09:59:47.657Z,16.99
2022-12-25T10:02:51.807Z,17.43
2022-12-25T10:05:39.647Z,17.79
2022-12-25T10:08:41.242Z,18.14
2022-12-25T10:11:39.200Z,18.32
2022-12-25T10:14:35.407Z,18.58
2022-12-25T10:17:32.131Z,18.86
2022-12-25T10:20:13.588Z,18.94
2022-12-25T10:22:45.811Z,19.26
2022-12-25T10:25:20.505Z,19.65
2022-12-25T10:27:51.736Z,19.90
2022-12-25T10:30:26.283Z,20.19
2022-12-25T10:32:54.887Z,20.45
2022-12-25T10:35:24.272Z,20.74
2022-12-25T10:37:58.939Z,20.75
2022-12-25T10:40:58.032Z,20.85
2022-12-25T10:43:49.843Z,21.05
2022-12-25T10:46:17.582Z,21.21
2022-12-25T10:48:51.862Z,21.32
2022-12-25T10:51:34.640Z,21.68
2022-12-25T10:54:25.140Z,22.03
2022-12-25T10:56:57.487Z,22.11
2022-12-25T10:59:29.426Z,22.35
2022-12-25T11:02:03.783Z,22.20
2022-12-25T11:04:35.618Z,22.64
2022-12-25T11:07:07.577Z,22.75
2022-12-25T11:09:34.657Z,23.05
2022-12-25T11:12:01.512Z,22.98
2022-12-25T11:14:29.247Z,23.15
2022-12-25T11:16:56.160Z,22.98
2022-12-25T11:19:32.874Z,22.57
2022-12-25T11:22:01.900Z,22.71
2022-12-25T11:24:31.240Z,22.61
2022-12-25T11:27:01.708Z,22.37
2022-12-25T11:29:48.920Z,22.54
2022-12-25T11:32:46.543Z,22.52
2022-12-25T11:35:16.311Z,22.37
2022-12-25T11:37:52.956Z,22.21
2022-12-25T11:40:24.936Z,22.22
2022-12-25T11:42:55.594Z,22.27
2022-12-25T11:45:31.715Z,22.25
2022-12-25T11:48:24.651Z,22.48
2022-12-25T11:50:59.732Z,22.60
2022-12-25T11:53:41.202Z,22.50
2022-12-25T11:56:11.309Z,22.39
2022-12-25T11:58:50.066Z,22.07
2022-12-25T12:01:29.300Z,21.67
2022-12-25T12:03:57.938Z,21.31
2022-12-25T12:06:43.545Z,21.49
2022-12-25T12:09:35.430Z,22.08
2022-12-25T12:12:17.328Z,22.44
2022-12-25T12:15:00.633Z,22.53
2022-12-25T12:17:27.240Z,22.68
2022-12-25T12:19:53.834Z,22.45
2022-12-25T12:22:23.807Z,22.05
2022-12-25T12:25:01.471Z,21.53
2022-12-25T12:27:36.120Z,21.00
2022-12-25T12:30:04.385Z,20.70
2022-12-25T12:32:42.736Z,20.51
2022-12-25T12:35:17.385Z,20.47
2022-12-25T12:37:46.769Z,20.52
2022-12-25T12:40:35.723Z,21.09
2022-12-25T12:43:02.930Z,21.60
2022-12-25T12:45:33.712Z,22.03
2022-12-25T12:48:00.804Z,21.83
2022-12-25T12:50:27.488Z,21.62
2022-12-25T12:52:54.055Z,21.53
2022-12-25T12:55:34.929Z,21.51
2022-12-25T12:58:05.111Z,21.38
2022-12-25T13:00:52.413Z,20.93
2022-12-25T13:04:05.294Z,19.85
2022-12-25T13:07:05.865Z,19.12
2022-12-25T13:09:56.869Z,18.56
2022-12-25T13:12:23.916Z,17.78
2022-12-25T13:14:51.029Z,17.42
2022-12-25T13:17:22.519Z,17.08
2022-12-25T13:19:55.345Z,16.81
2022-12-25T13:22:30.993Z,16.75
2022-12-25T13:25:00.465Z,16.55
2022-12-25T13:27:30.616Z,16.33
2022-12-25T13:29:58.570Z,16.26
2022-12-25T13:32:28.217Z,16.21
2022-12-25T13:34:55.441Z,16.19
2022-12-25T13:37:25.462Z,16.10
2022-12-25T13:39:56.543Z,15.93
2022-12-25T13:42:28.619Z,15.75
2022-12-25T13:45:00.568Z,15.57
2022-12-25T13:47:32.245Z,15.24
2022-12-25T13:50:02.754Z,15.12
2022-12-25T13:52:37.613Z,15.16
2022-12-25T13:55:12.608Z,15.53
2022-12-25T13:57:59.760Z,15.87
2022-12-25T14:00:38.068Z,16.18
2022-12-25T14:03:09.736Z,16.36
2022-12-25T14:05:43.102Z,16.55
2022-12-25T14:08:15.846Z,16.60
2022-12-25T14:10:45.940Z,16.38
2022-12-25T14:13:15.788Z,16.08
2022-12-25T14:15:45.029Z,15.77
2022-12-25T14:18:16.675Z,15.62
2022-12-25T14:21:01.271Z,15.53
2022-12-25T14:23:31.112Z,15.34
2022-12-25T14:25:57.701Z,15.13
2022-12-25T14:28:32.177Z,14.88
2022-12-25T14:31:02.889Z,14.66
2022-12-25T14:33:36.752Z,14.46
2022-12-25T14:36:03.652Z,14.31
2022-12-25T14:38:40.956Z,14.21
2022-12-25T14:41:34.916Z,13.93
2022-12-25T14:44:03.915Z,13.73
2022-12-25T14:46:33.183Z,13.60
2022-12-25T14:49:07.148Z,13.45
2022-12-25T14:51:38.199Z,13.33
2022-12-25T14:54:17.354Z,13.22
2022-12-25T14:56:48.478Z,13.11
2022-12-25T14:59:20.922Z,13.00
2022-12-25T15:01:57.600Z,12.83
2022-12-25T15:04:25.916Z,12.70
2022-12-25T15:07:11.383Z,12.59
2022-12-25T15:09:38.095Z,12.53
2022-12-25T15:12:04.961Z,12.43
2022-12-25T15:14:31.570Z,12.29
2022-12-25T15:17:01.294Z,12.18
2022-12-25T15:19:38.704Z,12.02
2022-12-25T15:22:06.382Z,11.94
2022-12-25T15:24:33.006Z,11.90
2022-12-25T15:27:00.626Z,11.85
2022-12-25T15:30:07.340Z,11.81
2022-12-25T15:32:19.039Z,11.73
2022-12-25T15:34:47.250Z,11.62
2022-12-25T15:37:14.453Z,11.54
2022-12-25T15:39:41.566Z,11.48
2022-12-25T15:42:16.887Z,11.40
2022-12-25T15:44:44.706Z,11.38
2022-12-25T15:47:16.155Z,11.38
2022-12-25T15:49:43.697Z,11.34
2022-12-25T15:52:14.377Z,11.20
2022-12-25T15:54:41.186Z,11.19
2022-12-25T15:57:22.392Z,11.15
2022-12-25T15:59:49.059Z,11.12
2022-12-25T16:02:18.457Z,11.05
2022-12-25T16:04:45.624Z,11.04
2022-12-25T16:07:18.341Z,11.00
2022-12-25T16:09:45.032Z,10.97
2022-12-25T16:12:11.861Z,10.95
2022-12-25T16:14:38.448Z,10.90
2022-12-25T16:17:05.828Z,10.87
2022-12-25T16:19:32.457Z,10.84
2022-12-25T16:21:59.209Z,10.80
2022-12-25T16:24:25.785Z,10.77
2022-12-25T16:26:52.345Z,10.76
2022-12-25T16:29:18.921Z,10.73
2022-12-25T16:31:45.630Z,10.68
2022-12-25T16:34:12.237Z,10.64
2022-12-25T16:36:39.308Z,10.62
2022-12-25T16:39:06.862Z,10.52
2022-12-25T16:41:34.433Z,10.46
2022-12-25T16:44:09.371Z,10.41
2022-12-25T16:46:37.736Z,10.36
2022-12-25T16:49:04.507Z,10.28
2022-12-25T16:51:31.137Z,10.20
2022-12-25T16:53:57.723Z,10.17
2022-12-25T16:56:26.970Z,10.17
2022-12-25T16:58:53.953Z,10.16
2022-12-25T17:01:25.456Z,10.12
2022-12-25T17:03:52.697Z,10.13
2022-12-25T17:06:23.158Z,10.06
2022-12-25T17:08:51.983Z,10.05
2022-12-25T17:11:23.642Z,9.97
2022-12-25T17:13:50.396Z,9.93
2022-12-25T17:16:23.371Z,9.86
2022-12-25T17:19:05.064Z,9.84
2022-12-25T17:21:35.043Z,9.81
2022-12-25T17:24:04.015Z,9.75
2022-12-25T17:26:32.406Z,9.75
2022-12-25T17:28:59.281Z,9.69
2022-12-25T17:31:25.945Z,9.65
2022-12-25T17:33:52.720Z,9.59
2022-12-25T17:36:21.194Z,9.52
2022-12-25T17:38:48.565Z,9.42
2022-12-25T17:41:16.822Z,9.34
2022-12-25T17:43:45.669Z,9.23
2022-12-25T17:46:27.211Z,9.10
2022-12-25T17:48:56.677Z,8.97
2022-12-25T17:51:26.050Z,8.88
2022-12-25T17:53:57.090Z,8.83
2022-12-25T17:56:25.314Z,8.77
2022-12-25T17:58:54.259Z,8.66
2022-12-25T18:01:21.895Z,8.57
2022-12-25T18:03:49.125Z,8.52
2022-12-25T18:06:22.342Z,8.43
2022-12-25T18:08:49.502Z,8.32
2022-12-25T18:11:19.830Z,8.30
2022-12-25T18:13:49.924Z,8.25
2022-12-25T18:16:17.538Z,8.20
2022-12-25T18:18:51.387Z,8.19
2022-12-25T18:21:19.967Z,8.12
2022-12-25T18:23:46.928Z,8.10
2022-12-25T18:26:13.625Z,8.06
2022-12-25T18:28:42.398Z,8.06
2022-12-25T18:31:12.985Z,8.03
2022-12-25T18:33:39.555Z,7.97
2022-12-25T18:36:06.555Z,7.97
2022-12-25T18:38:33.617Z,7.99
2022-12-25T18:41:00.216Z,7.99
2022-12-25T18:43:54.149Z,7.95
2022-12-25T18:46:14.225Z,7.87
2022-12-25T18:48:41.344Z,7.84
2022-12-25T18:51:11.224Z,7.78
2022-12-25T18:53:38.311Z,7.78
2022-12-25T18:56:10.302Z,7.79
2022-12-25T18:58:38.291Z,7.75
2022-12-25T19:01:23.227Z,7.74
2022-12-25T19:03:50.849Z,7.76
2022-12-25T19:06:23.705Z,7.75
2022-12-25T19:08:50.639Z,7.79
2022-12-25T19:11:18.565Z,7.73
2022-12-25T19:13:45.486Z,7.75
2022-12-25T19:16:12.734Z,7.77
2022-12-25T19:18:40.184Z,7.78
2022-12-25T19:21:08.688Z,7.80
2022-12-25T19:23:35.728Z,7.77
2022-12-25T19:26:05.156Z,7.78
2022-12-25T19:28:31.748Z,7.77
2022-12-25T19:31:00.035Z,7.77
2022-12-25T19:33:26.697Z,7.75
2022-12-25T19:35:53.363Z,7.73
2022-12-25T19:38:20.275Z,7.76
2022-12-25T19:41:00.595Z,7.77
2022-12-25T19:43:33.682Z,7.75
2022-12-25T19:46:01.574Z,7.73
2022-12-25T19:48:28.927Z,7.73
2022-12-25T19:50:55.568Z,7.70
2022-12-25T19:53:23.935Z,7.71
2022-12-25T19:55:54.431Z,7.71
2022-12-25T19:58:23.197Z,7.73
2022-12-25T20:01:02.771Z,7.75
2022-12-25T20:03:29.507Z,7.77
2022-12-25T20:05:56.606Z,7.77
2022-12-25T20:08:23.391Z,7.73
2022-12-25T20:10:50.709Z,7.73
2022-12-25T20:13:17.747Z,7.73
2022-12-25T20:15:44.598Z,7.75
2022-12-25T20:18:11.344Z,7.75
2022-12-25T20:20:38.031Z,7.77
2022-12-25T20:23:04.792Z,7.78
2022-12-25T20:25:31.381Z,7.84
2022-12-25T20:27:58.025Z,7.86
2022-12-25T20:30:24.664Z,7.85
2022-12-25T20:32:51.247Z,7.85
2022-12-25T20:35:18.061Z,7.81
2022-12-25T20:37:44.881Z,7.77
2022-12-25T20:40:12.123Z,7.69
2022-12-25T20:42:38.740Z,7.65
2022-12-25T20:45:07.446Z,7.67
2022-12-25T20:47:35.169Z,7.66
2022-12-25T20:50:01.805Z,7.69
2022-12-25T20:52:28.577Z,7.70
2022-12-25T20:54:55.147Z,7.75
2022-12-25T20:57:21.859Z,7.75
2022-12-25T20:59:48.426Z,7.77
2022-12-25T21:02:34.438Z,7.82
2022-12-25T21:05:02.226Z,7.87
2022-12-25T21:07:28.872Z,7.92
2022-12-25T21:09:55.411Z,7.93
2022-12-25T21:12:21.995Z,7.98
2022-12-25T21:14:48.559Z,8.00
2022-12-25T21:17:15.243Z,8.08
2022-12-25T21:19:41.857Z,8.11
2022-12-25T21:22:08.555Z,8.13
2022-12-25T21:24:35.190Z,8.13
2022-12-25T21:27:01.755Z,8.17
2022-12-25T21:29:28.331Z,8.18
2022-12-25T21:32:13.201Z,8.19
2022-12-25T21:34:40.047Z,8.18
2022-12-25T21:37:06.717Z,8.18
2022-12-25T21:39:33.337Z,8.20
2022-12-25T21:41:59.917Z,8.20
2022-12-25T21:44:26.515Z,8.22
2022-12-25T21:46:53.127Z,8.23
2022-12-25T21:49:39.740Z,8.25
2022-12-25T21:52:09.354Z,8.25
2022-12-25T21:54:36.271Z,8.26
2022-12-25T21:57:03.129Z,8.27
2022-12-25T21:59:29.757Z,8.27
2022-12-25T22:01:56.604Z,8.28
2022-12-25T22:04:23.760Z,8.28
2022-12-25T22:07:09.221Z,8.30
2022-12-25T22:09:36.222Z,8.31
2022-12-25T22:12:22.055Z,8.27
2022-12-25T22:14:56.725Z,8.27
2022-12-25T22:17:50.615Z,8.29
2022-12-25T22:20:27.911Z,8.29
2022-12-25T22:22:54.861Z,8.29
2022-12-25T22:25:22.349Z,8.29
2022-12-25T22:27:49.731Z,8.26
2022-12-25T22:30:19.487Z,8.23
2022-12-25T22:32:46.508Z,8.23
2022-12-25T22:35:14.077Z,8.21
2022-12-25T22:37:42.292Z,8.22
2022-12-25T22:40:11.366Z,8.23
2022-12-25T22:42:37.933Z,8.22
2022-12-25T22:45:05.207Z,8.22
2022-12-25T22:47:31.783Z,8.21
2022-12-25T22:49:58.380Z,8.19
2022-12-25T22:52:25.355Z,8.18
2022-12-25T22:54:51.905Z,8.19
2022-12-25T22:57:18.566Z,8.19
2022-12-25T22:59:45.174Z,8.20
2022-12-25T23:02:11.809Z,8.20
2022-12-25T23:04:38.493Z,8.20
2022-12-25T23:07:05.327Z,8.21
2022-12-25T23:09:31.942Z,8.23
2022-12-25T23:11:59.179Z,8.23
2022-12-25T23:14:39.172Z,8.20
2022-12-25T23:17:31.674Z,8.20
2022-12-25T23:20:18.159Z,8.20
2022-12-25T23:23:04.188Z,8.20
2022-12-25T23:25:49.645Z,8.19
2022-12-25T23:28:36.306Z,8.21
2022-12-25T23:31:03.043Z,8.20
2022-12-25T23:33:29.839Z,8.22
2022-12-25T23:35:56.509Z,8.23
2022-12-25T23:38:23.069Z,8.22
2022-12-25T23:40:49.643Z,8.21
2022-12-25T23:43:16.238Z,8.20
2022-12-25T23:45:42.825Z,8.19
2022-12-25T23:48:09.386Z,8.18
2022-12-25T23:50:35.962Z,8.17
2022-12-25T23:53:02.517Z,8.15
2022-12-25T23:55:29.048Z,8.14
2022-12-25T23:57:55.616Z,8.13
